sensor_id;sensor_type;location;lat;lon;timestamp;pressure;altitude;pressure_sealevel;temperature;humidity
38227;BME280;24026;49.446;8.576;2023-01-23T00:00:13;101914.44;;;8.83;49.46
38227;BME280;24026;49.446;8.576;2023-01-23T00:02:35;101911.78;;;8.83;49.17
38227;BME280;24026;49.446;8.576;2023-01-23T00:04:56;101909.97;;;8.84;49.38
38227;BME280;24026;49.446;8.576;2023-01-23T00:07:16;101906.47;;;8.83;49.33
38227;BME280;24026;49.446;8.576;2023-01-23T00:09:36;101910.16;;;8.82;49.52
38227;BME280;24026;49.446;8.576;2023-01-23T00:11:57;101910.97;;;8.83;49.61
38227;BME280;24026;49.446;8.576;2023-01-23T00:14:17;101915.28;;;8.84;49.48
38227;BME280;24026;49.446;8.576;2023-01-23T00:16:38;101910.16;;;8.82;49.63
38227;BME280;24026;49.446;8.576;2023-01-23T00:18:58;101905.66;;;8.83;49.67
38227;BME280;24026;49.446;8.576;2023-01-23T00:21:22;101914.63;;;8.82;49.67
38227;BME280;24026;49.446;8.576;2023-01-23T00:24:01;101912.56;;;8.77;49.47
38227;BME280;24026;49.446;8.576;2023-01-23T00:26:27;101904.03;;;8.82;49.43
38227;BME280;24026;49.446;8.576;2023-01-23T00:28:48;101907.69;;;8.81;49.53
38227;BME280;24026;49.446;8.576;2023-01-23T00:31:12;101919.75;;;8.83;49.41
38227;BME280;24026;49.446;8.576;2023-01-23T00:33:32;101909.31;;;8.82;49.68
38227;BME280;24026;49.446;8.576;2023-01-23T00:35:54;101905.66;;;8.83;49.62
38227;BME280;24026;49.446;8.576;2023-01-23T00:38:14;101903.22;;;8.81;49.60
38227;BME280;24026;49.446;8.576;2023-01-23T00:40:34;101903.03;;;8.83;49.76
38227;BME280;24026;49.446;8.576;2023-01-23T00:42:55;101898.91;;;8.80;49.67
38227;BME280;24026;49.446;8.576;2023-01-23T00:45:15;101897.09;;;8.81;49.67
38227;BME280;24026;49.446;8.576;2023-01-23T00:47:36;101903.41;;;8.80;49.71
38227;BME280;24026;49.446;8.576;2023-01-23T00:49:56;101899.75;;;8.81;49.59
38227;BME280;24026;49.446;8.576;2023-01-23T00:52:19;101907.69;;;8.81;49.56
38227;BME280;24026;49.446;8.576;2023-01-23T00:54:39;101908.69;;;8.80;49.52
38227;BME280;24026;49.446;8.576;2023-01-23T00:56:59;101911.97;;;8.82;49.53
38227;BME280;24026;49.446;8.576;2023-01-23T00:59:20;101910.34;;;8.81;49.68
38227;BME280;24026;49.446;8.576;2023-01-23T01:01:40;101911.34;;;8.80;49.59
38227;BME280;24026;49.446;8.576;2023-01-23T01:04:01;101900.75;;;8.80;49.59
38227;BME280;24026;49.446;8.576;2023-01-23T01:06:22;101911.34;;;8.80;49.52
38227;BME280;24026;49.446;8.576;2023-01-23T01:08:42;101905.44;;;8.78;49.42
38227;BME280;24026;49.446;8.576;2023-01-23T01:11:03;101909.72;;;8.79;50.00
38227;BME280;24026;49.446;8.576;2023-01-23T01:13:24;101911.53;;;8.78;49.62
38227;BME280;24026;49.446;8.576;2023-01-23T01:15:44;101911.72;;;8.77;49.57
38227;BME280;24026;49.446;8.576;2023-01-23T01:18:05;101915.41;;;8.76;49.73
38227;BME280;24026;49.446;8.576;2023-01-23T01:20:26;101915.84;;;8.79;49.43
38227;BME280;24026;49.446;8.576;2023-01-23T01:22:47;101917.88;;;8.77;49.70
38227;BME280;24026;49.446;8.576;2023-01-23T01:25:08;101921.72;;;8.75;49.75
38227;BME280;24026;49.446;8.576;2023-01-23T01:27:29;101918.06;;;8.76;49.63
38227;BME280;24026;49.446;8.576;2023-01-23T01:29:49;101917.03;;;8.77;49.52
38227;BME280;24026;49.446;8.576;2023-01-23T01:32:11;101919.50;;;8.78;49.59
38227;BME280;24026;49.446;8.576;2023-01-23T01:34:31;101915.41;;;8.76;49.68
38227;BME280;24026;49.446;8.576;2023-01-23T01:36:52;101922.34;;;8.77;49.40
38227;BME280;24026;49.446;8.576;2023-01-23T01:39:12;101926.22;;;8.74;49.75
38227;BME280;24026;49.446;8.576;2023-01-23T01:41:33;101932.31;;;8.75;49.81
38227;BME280;24026;49.446;8.576;2023-01-23T01:43:54;101939.28;;;8.76;49.64
38227;BME280;24026;49.446;8.576;2023-01-23T01:48:59;101942.13;;;8.74;49.53
38227;BME280;24026;49.446;8.576;2023-01-23T01:53:51;101937.81;;;8.73;49.56
38227;BME280;24026;49.446;8.576;2023-01-23T01:56:16;101944.97;;;8.73;49.66
38227;BME280;24026;49.446;8.576;2023-01-23T01:58:38;101942.50;;;8.71;49.65
38227;BME280;24026;49.446;8.576;2023-01-23T02:01:00;101944.97;;;8.73;49.77
38227;BME280;24026;49.446;8.576;2023-01-23T02:03:22;101937.81;;;8.73;49.71
38227;BME280;24026;49.446;8.576;2023-01-23T02:05:46;101938.84;;;8.72;49.58
38227;BME280;24026;49.446;8.576;2023-01-23T02:08:34;101941.88;;;8.69;49.70
38227;BME280;24026;49.446;8.576;2023-01-23T02:10:55;101938.19;;;8.70;49.74
38227;BME280;24026;49.446;8.576;2023-01-23T02:13:29;101940.22;;;8.68;49.51
38227;BME280;24026;49.446;8.576;2023-01-23T02:15:52;101941.81;;;8.62;49.83
38227;BME280;24026;49.446;8.576;2023-01-23T02:18:14;101941.22;;;8.67;49.61
38227;BME280;24026;49.446;8.576;2023-01-23T02:20:34;101935.53;;;8.70;49.54
38227;BME280;24026;49.446;8.576;2023-01-23T02:23:00;101941.69;;;8.70;49.54
38227;BME280;24026;49.446;8.576;2023-01-23T02:25:45;101939.84;;;8.71;49.60
38227;BME280;24026;49.446;8.576;2023-01-23T02:28:09;101941.88;;;8.69;49.72
38227;BME280;24026;49.446;8.576;2023-01-23T02:30:29;101940.03;;;8.69;49.56
38227;BME280;24026;49.446;8.576;2023-01-23T02:32:50;101945.34;;;8.69;49.65
38227;BME280;24026;49.446;8.576;2023-01-23T02:35:14;101950.63;;;8.69;49.71
38227;BME280;24026;49.446;8.576;2023-01-23T02:37:39;101949.81;;;8.69;49.57
38227;BME280;24026;49.446;8.576;2023-01-23T02:40:01;101954.09;;;8.70;49.54
38227;BME280;24026;49.446;8.576;2023-01-23T02:42:23;101953.28;;;8.69;49.89
38227;BME280;24026;49.446;8.576;2023-01-23T02:44:44;101955.13;;;8.69;49.52
38227;BME280;24026;49.446;8.576;2023-01-23T02:47:06;101957.78;;;8.69;49.67
38227;BME280;24026;49.446;8.576;2023-01-23T02:49:30;101952.47;;;8.69;49.55
38227;BME280;24026;49.446;8.576;2023-01-23T02:51:51;101955.13;;;8.69;49.65
38227;BME280;24026;49.446;8.576;2023-01-23T02:54:13;101958.59;;;8.69;49.38
38227;BME280;24026;49.446;8.576;2023-01-23T02:56:34;101953.91;;;8.71;49.49
38227;BME280;24026;49.446;8.576;2023-01-23T02:58:54;101958.59;;;8.69;49.50
38227;BME280;24026;49.446;8.576;2023-01-23T03:01:33;101950.63;;;8.69;49.68
38227;BME280;24026;49.446;8.576;2023-01-23T03:03:54;101950.63;;;8.69;49.69
38227;BME280;24026;49.446;8.576;2023-01-23T03:06:16;101949.81;;;8.69;49.47
38227;BME280;24026;49.446;8.576;2023-01-23T03:08:37;101950.63;;;8.69;49.45
38227;BME280;24026;49.446;8.576;2023-01-23T03:11:06;101952.47;;;8.69;49.39
38227;BME280;24026;49.446;8.576;2023-01-23T03:13:27;101952.47;;;8.69;49.42
38227;BME280;24026;49.446;8.576;2023-01-23T03:15:50;101953.28;;;8.69;49.51
38227;BME280;24026;49.446;8.576;2023-01-23T03:18:12;101954.28;;;8.68;49.53
38227;BME280;24026;49.446;8.576;2023-01-23T03:20:39;101951.63;;;8.68;49.41
38227;BME280;24026;49.446;8.576;2023-01-23T03:23:00;101948.97;;;8.68;49.56
38227;BME280;24026;49.446;8.576;2023-01-23T03:25:21;101948.59;;;8.71;49.37
38227;BME280;24026;49.446;8.576;2023-01-23T03:27:41;101955.75;;;8.71;49.48
38227;BME280;24026;49.446;8.576;2023-01-23T03:30:02;101950.63;;;8.69;49.55
38227;BME280;24026;49.446;8.576;2023-01-23T03:32:32;101954.47;;;8.67;49.34
38227;BME280;24026;49.446;8.576;2023-01-23T03:34:53;101958.78;;;8.68;49.45
38227;BME280;24026;49.446;8.576;2023-01-23T03:37:13;101956.94;;;8.68;49.49
38227;BME280;24026;49.446;8.576;2023-01-23T03:39:34;101963.69;;;8.71;49.42
38227;BME280;24026;49.446;8.576;2023-01-23T03:42:13;101958.59;;;8.69;49.32
38227;BME280;24026;49.446;8.576;2023-01-23T03:44:34;101955.31;;;8.67;49.58
38227;BME280;24026;49.446;8.576;2023-01-23T03:46:54;101956.13;;;8.68;49.28
38227;BME280;24026;49.446;8.576;2023-01-23T03:49:15;101956.75;;;8.70;49.55
38227;BME280;24026;49.446;8.576;2023-01-23T03:51:35;101951.63;;;8.68;49.53
38227;BME280;24026;49.446;8.576;2023-01-23T03:53:56;101959.41;;;8.70;49.47
38227;BME280;24026;49.446;8.576;2023-01-23T03:56:16;101965.53;;;8.70;49.38
38227;BME280;24026;49.446;8.576;2023-01-23T03:58:37;101962.06;;;8.70;49.29
38227;BME280;24026;49.446;8.576;2023-01-23T04:00:57;101953.28;;;8.69;49.32
38227;BME280;24026;49.446;8.576;2023-01-23T04:03:18;101952.47;;;8.69;49.51
38227;BME280;24026;49.446;8.576;2023-01-23T04:05:38;101960.25;;;8.70;49.52
38227;BME280;24026;49.446;8.576;2023-01-23T04:07:59;101959.41;;;8.70;49.67
38227;BME280;24026;49.446;8.576;2023-01-23T04:10:19;101955.94;;;8.69;49.49
38227;BME280;24026;49.446;8.576;2023-01-23T04:12:43;101954.28;;;8.68;49.34
38227;BME280;24026;49.446;8.576;2023-01-23T04:15:03;101960.25;;;8.70;49.10
38227;BME280;24026;49.446;8.576;2023-01-23T04:17:24;101957.59;;;8.70;49.41
38227;BME280;24026;49.446;8.576;2023-01-23T04:19:44;101959.59;;;8.68;49.52
38227;BME280;24026;49.446;8.576;2023-01-23T04:22:05;101963.09;;;8.69;49.47
38227;BME280;24026;49.446;8.576;2023-01-23T04:24:25;101963.69;;;8.71;49.27
38227;BME280;24026;49.446;8.576;2023-01-23T04:26:46;101963.09;;;8.69;49.40
38227;BME280;24026;49.446;8.576;2023-01-23T04:29:06;101968.38;;;8.69;49.42
38227;BME280;24026;49.446;8.576;2023-01-23T04:31:27;101973.69;;;8.69;49.48
38227;BME280;24026;49.446;8.576;2023-01-23T04:33:47;101981.63;;;8.69;49.37
38227;BME280;24026;49.446;8.576;2023-01-23T04:36:07;101976.16;;;8.70;49.33
38227;BME280;24026;49.446;8.576;2023-01-23T04:38:30;101980.78;;;8.68;49.50
38227;BME280;24026;49.446;8.576;2023-01-23T04:40:51;101980.59;;;8.70;49.37
38227;BME280;24026;49.446;8.576;2023-01-23T04:43:12;101980.59;;;8.70;49.45
38227;BME280;24026;49.446;8.576;2023-01-23T04:45:32;101986.09;;;8.68;49.34
38227;BME280;24026;49.446;8.576;2023-01-23T04:47:53;101980.59;;;8.70;49.42
38227;BME280;24026;49.446;8.576;2023-01-23T04:50:14;101987.75;;;8.69;49.36
38227;BME280;24026;49.446;8.576;2023-01-23T04:52:35;101987.75;;;8.69;49.03
38227;BME280;24026;49.446;8.576;2023-01-23T04:54:56;101994.69;;;8.70;49.48
38227;BME280;24026;49.446;8.576;2023-01-23T04:57:16;102005.50;;;8.69;49.46
38227;BME280;24026;49.446;8.576;2023-01-23T04:59:36;102004.47;;;8.70;49.31
38227;BME280;24026;49.446;8.576;2023-01-23T05:01:57;102008.97;;;8.69;49.54
38227;BME280;24026;49.446;8.576;2023-01-23T05:04:17;102012.41;;;8.70;49.28
38227;BME280;24026;49.446;8.576;2023-01-23T05:06:38;102011.59;;;8.69;49.34
38227;BME280;24026;49.446;8.576;2023-01-23T05:08:58;102008.97;;;8.69;49.36
38227;BME280;24026;49.446;8.576;2023-01-23T05:11:19;102016.28;;;8.67;49.43
38227;BME280;24026;49.446;8.576;2023-01-23T05:13:39;102018.09;;;8.67;49.46
38227;BME280;24026;49.446;8.576;2023-01-23T05:15:59;102019.56;;;8.69;49.36
38227;BME280;24026;49.446;8.576;2023-01-23T05:18:20;102017.09;;;8.68;49.50
38227;BME280;24026;49.446;8.576;2023-01-23T05:20:40;102021.41;;;8.69;49.40
38227;BME280;24026;49.446;8.576;2023-01-23T05:23:01;102018.75;;;8.69;49.77
38227;BME280;24026;49.446;8.576;2023-01-23T05:25:24;102022.41;;;8.68;49.43
38227;BME280;24026;49.446;8.576;2023-01-23T05:27:44;102029.53;;;8.67;49.56
38227;BME280;24026;49.446;8.576;2023-01-23T05:30:05;102032.19;;;8.67;49.47
38227;BME280;24026;49.446;8.576;2023-01-23T05:32:26;102033.81;;;8.68;49.37
38227;BME280;24026;49.446;8.576;2023-01-23T05:34:46;102032.19;;;8.67;49.25
38227;BME280;24026;49.446;8.576;2023-01-23T05:37:07;102039.97;;;8.69;49.08
38227;BME280;24026;49.446;8.576;2023-01-23T05:39:31;102033.00;;;8.68;49.48
38227;BME280;24026;49.446;8.576;2023-01-23T05:41:51;102033.00;;;8.68;49.44
38227;BME280;24026;49.446;8.576;2023-01-23T05:44:12;102036.09;;;8.71;49.34
38227;BME280;24026;49.446;8.576;2023-01-23T05:46:33;102036.78;;;8.80;49.13
38227;BME280;24026;49.446;8.576;2023-01-23T05:48:54;102038.31;;;8.89;49.03
38227;BME280;24026;49.446;8.576;2023-01-23T05:51:15;102041.09;;;9.03;48.63
38227;BME280;24026;49.446;8.576;2023-01-23T05:53:37;102047.31;;;9.17;48.37
38227;BME280;24026;49.446;8.576;2023-01-23T05:56:04;102045.59;;;9.31;48.04
38227;BME280;24026;49.446;8.576;2023-01-23T05:58:26;102042.59;;;9.40;47.53
38227;BME280;24026;49.446;8.576;2023-01-23T06:00:46;102046.78;;;9.56;47.27
38227;BME280;24026;49.446;8.576;2023-01-23T06:03:08;102046.06;;;9.69;46.91
38227;BME280;24026;49.446;8.576;2023-01-23T06:05:29;102041.03;;;9.81;46.62
38227;BME280;24026;49.446;8.576;2023-01-23T06:07:51;102042.09;;;9.93;46.74
38227;BME280;24026;49.446;8.576;2023-01-23T06:10:13;102046.28;;;10.09;46.12
38227;BME280;24026;49.446;8.576;2023-01-23T06:12:35;102047.94;;;10.24;46.19
38227;BME280;24026;49.446;8.576;2023-01-23T06:14:56;102047.56;;;10.27;45.47
38227;BME280;24026;49.446;8.576;2023-01-23T06:17:17;102050.47;;;10.32;45.88
38227;BME280;24026;49.446;8.576;2023-01-23T06:19:38;102050.91;;;10.42;45.57
38227;BME280;24026;49.446;8.576;2023-01-23T06:21:59;102045.41;;;10.57;45.41
38227;BME280;24026;49.446;8.576;2023-01-23T06:24:21;102055.47;;;10.68;45.35
38227;BME280;24026;49.446;8.576;2023-01-23T06:26:41;102047.13;;;10.78;45.09
38227;BME280;24026;49.446;8.576;2023-01-23T06:29:02;102053.66;;;10.96;44.97
38227;BME280;24026;49.446;8.576;2023-01-23T06:31:23;102050.19;;;11.08;44.61
38227;BME280;24026;49.446;8.576;2023-01-23T06:33:43;102051.84;;;11.23;44.59
38227;BME280;24026;49.446;8.576;2023-01-23T06:36:04;102040.16;;;11.30;44.14
38227;BME280;24026;49.446;8.576;2023-01-23T06:38:26;102044.25;;;11.40;44.50
38227;BME280;24026;49.446;8.576;2023-01-23T06:40:46;102039.94;;;11.52;44.29
38227;BME280;24026;49.446;8.576;2023-01-23T06:43:06;102045.44;;;11.64;44.26
38227;BME280;24026;49.446;8.576;2023-01-23T06:45:28;102042.56;;;11.72;43.97
38227;BME280;24026;49.446;8.576;2023-01-23T06:47:50;102044.19;;;11.73;44.05
38227;BME280;24026;49.446;8.576;2023-01-23T06:50:11;102047.44;;;11.82;43.89
38227;BME280;24026;49.446;8.576;2023-01-23T06:52:31;102049.50;;;11.93;43.64
38227;BME280;24026;49.446;8.576;2023-01-23T06:54:52;102051.72;;;12.03;43.59
38227;BME280;24026;49.446;8.576;2023-01-23T06:57:13;102062.38;;;12.10;43.35
38227;BME280;24026;49.446;8.576;2023-01-23T06:59:33;102066.03;;;12.15;43.08
38227;BME280;24026;49.446;8.576;2023-01-23T07:01:54;102064.31;;;12.28;42.83
38227;BME280;24026;49.446;8.576;2023-01-23T07:04:14;102067.38;;;12.38;42.80
38227;BME280;24026;49.446;8.576;2023-01-23T07:06:35;102068.97;;;12.46;42.52
38227;BME280;24026;49.446;8.576;2023-01-23T07:08:55;102069.56;;;12.48;42.67
38227;BME280;24026;49.446;8.576;2023-01-23T07:11:15;102076.88;;;12.59;42.58
38227;BME280;24026;49.446;8.576;2023-01-23T07:13:36;102084.00;;;12.72;42.47
38227;BME280;24026;49.446;8.576;2023-01-23T07:15:57;102090.91;;;12.79;42.35
38227;BME280;24026;49.446;8.576;2023-01-23T07:18:17;102094.97;;;12.89;42.24
38227;BME280;24026;49.446;8.576;2023-01-23T07:20:38;102098.63;;;12.94;42.14
38227;BME280;24026;49.446;8.576;2023-01-23T07:22:58;102107.69;;;12.93;42.02
38227;BME280;24026;49.446;8.576;2023-01-23T07:25:20;102109.22;;;13.08;41.73
38227;BME280;24026;49.446;8.576;2023-01-23T07:27:41;102112.66;;;13.15;41.68
38227;BME280;24026;49.446;8.576;2023-01-23T07:30:02;102117.75;;;13.23;41.23
38227;BME280;24026;49.446;8.576;2023-01-23T07:32:22;102112.56;;;13.28;41.29
38227;BME280;24026;49.446;8.576;2023-01-23T07:34:42;102120.34;;;13.37;41.11
38227;BME280;24026;49.446;8.576;2023-01-23T07:37:03;102116.56;;;13.44;40.88
38227;BME280;24026;49.446;8.576;2023-01-23T07:39:24;102125.13;;;13.53;40.58
38227;BME280;24026;49.446;8.576;2023-01-23T07:41:44;102127.72;;;13.60;40.64
38227;BME280;24026;49.446;8.576;2023-01-23T07:44:05;102126.63;;;13.67;40.74
38227;BME280;24026;49.446;8.576;2023-01-23T07:46:26;102131.72;;;13.76;40.23
38227;BME280;24026;49.446;8.576;2023-01-23T07:48:46;102128.81;;;13.77;40.39
38227;BME280;24026;49.446;8.576;2023-01-23T07:51:06;102132.22;;;13.84;40.33
38227;BME280;24026;49.446;8.576;2023-01-23T07:53:28;102128.69;;;13.90;40.15
38227;BME280;24026;49.446;8.576;2023-01-23T07:55:49;102116.72;;;13.93;40.07
38227;BME280;24026;49.446;8.576;2023-01-23T07:58:11;102116.66;;;14.00;39.96
38227;BME280;24026;49.446;8.576;2023-01-23T08:00:32;102126.31;;;14.01;39.87
38227;BME280;24026;49.446;8.576;2023-01-23T08:02:52;102125.06;;;14.03;39.91
38227;BME280;24026;49.446;8.576;2023-01-23T08:05:13;102130.19;;;14.05;39.51
38227;BME280;24026;49.446;8.576;2023-01-23T08:07:33;102129.41;;;14.16;39.32
38227;BME280;24026;49.446;8.576;2023-01-23T08:09:55;102140.25;;;14.21;39.22
38227;BME280;24026;49.446;8.576;2023-01-23T08:12:16;102136.72;;;14.27;38.91
38227;BME280;24026;49.446;8.576;2023-01-23T08:14:36;102136.84;;;14.33;38.72
38227;BME280;24026;49.446;8.576;2023-01-23T08:16:57;102135.97;;;14.39;39.07
38227;BME280;24026;49.446;8.576;2023-01-23T08:19:18;102125.13;;;14.34;38.66
38227;BME280;24026;49.446;8.576;2023-01-23T08:21:40;102128.97;;;14.38;38.58
38227;BME280;24026;49.446;8.576;2023-01-23T08:24:01;102132.22;;;14.40;38.51
38227;BME280;24026;49.446;8.576;2023-01-23T08:26:23;102128.22;;;14.49;38.83
38227;BME280;24026;49.446;8.576;2023-01-23T08:28:44;102125.91;;;14.53;38.65
38227;BME280;24026;49.446;8.576;2023-01-23T08:31:06;102131.91;;;14.48;38.85
38227;BME280;24026;49.446;8.576;2023-01-23T08:33:28;102132.00;;;14.60;38.67
38227;BME280;24026;49.446;8.576;2023-01-23T08:35:53;102129.00;;;14.68;38.69
38227;BME280;24026;49.446;8.576;2023-01-23T08:38:15;102130.78;;;14.74;38.56
38227;BME280;24026;49.446;8.576;2023-01-23T08:40:40;102131.91;;;14.67;38.71
38227;BME280;24026;49.446;8.576;2023-01-23T08:43:00;102127.56;;;14.54;39.11
38227;BME280;24026;49.446;8.576;2023-01-23T08:45:21;102135.22;;;14.32;39.22
38227;BME280;24026;49.446;8.576;2023-01-23T08:47:41;102119.84;;;14.27;39.86
38227;BME280;24026;49.446;8.576;2023-01-23T08:50:02;102133.00;;;14.10;39.61
38227;BME280;24026;49.446;8.576;2023-01-23T08:52:28;102132.25;;;14.03;39.73
38227;BME280;24026;49.446;8.576;2023-01-23T08:54:48;102125.56;;;13.94;40.03
38227;BME280;24026;49.446;8.576;2023-01-23T08:57:11;102133.66;;;13.87;40.05
38227;BME280;24026;49.446;8.576;2023-01-23T08:59:34;102138.16;;;13.86;40.04
38227;BME280;24026;49.446;8.576;2023-01-23T09:01:58;102127.72;;;14.03;39.50
38227;BME280;24026;49.446;8.576;2023-01-23T09:04:21;102130.47;;;14.15;39.52
38227;BME280;24026;49.446;8.576;2023-01-23T09:06:43;102133.44;;;14.25;39.39
38227;BME280;24026;49.446;8.576;2023-01-23T09:09:07;102139.06;;;14.36;39.43
38227;BME280;24026;49.446;8.576;2023-01-23T09:11:28;102139.94;;;14.48;39.16
38227;BME280;24026;49.446;8.576;2023-01-23T09:13:50;102147.44;;;14.58;38.94
38227;BME280;24026;49.446;8.576;2023-01-23T09:16:12;102149.97;;;14.71;38.82
38227;BME280;24026;49.446;8.576;2023-01-23T09:18:33;102140.03;;;14.78;38.63
38227;BME280;24026;49.446;8.576;2023-01-23T09:20:54;102144.81;;;14.88;38.46
38227;BME280;24026;49.446;8.576;2023-01-23T09:23:16;102148.81;;;14.97;38.50
38227;BME280;24026;49.446;8.576;2023-01-23T09:25:37;102158.59;;;15.04;38.31
38227;BME280;24026;49.446;8.576;2023-01-23T09:28:00;102149.41;;;15.11;38.10
38227;BME280;24026;49.446;8.576;2023-01-23T09:30:23;102151.41;;;15.16;38.08
38227;BME280;24026;49.446;8.576;2023-01-23T09:32:46;102151.75;;;15.19;38.13
38227;BME280;24026;49.446;8.576;2023-01-23T09:35:07;102154.91;;;15.28;37.84
38227;BME280;24026;49.446;8.576;2023-01-23T09:37:29;102150.28;;;15.35;37.68
38227;BME280;24026;49.446;8.576;2023-01-23T09:40:15;102146.78;;;15.47;37.80
38227;BME280;24026;49.446;8.576;2023-01-23T09:42:42;102144.38;;;15.57;37.55
38227;BME280;24026;49.446;8.576;2023-01-23T09:45:11;102141.81;;;15.62;37.47
38227;BME280;24026;49.446;8.576;2023-01-23T09:47:43;102148.44;;;15.71;37.37
38227;BME280;24026;49.446;8.576;2023-01-23T09:50:30;102155.00;;;15.76;37.05
38227;BME280;24026;49.446;8.576;2023-01-23T09:53:05;102153.72;;;15.78;36.82
38227;BME280;24026;49.446;8.576;2023-01-23T09:55:44;102158.13;;;15.72;37.13
38227;BME280;24026;49.446;8.576;2023-01-23T10:01:11;102174.53;;;15.52;37.43
38227;BME280;24026;49.446;8.576;2023-01-23T10:03:36;102161.91;;;15.17;38.15
38227;BME280;24026;49.446;8.576;2023-01-23T10:21:59;102172.88;;;14.49;39.06
38227;BME280;24026;49.446;8.576;2023-01-23T10:24:43;102162.56;;;14.34;38.98
38227;BME280;24026;49.446;8.576;2023-01-23T10:29:38;102165.75;;;14.61;38.70
38227;BME280;24026;49.446;8.576;2023-01-23T10:32:03;102165.44;;;14.69;38.59
38227;BME280;24026;49.446;8.576;2023-01-23T10:34:47;102159.66;;;14.72;38.37
38227;BME280;24026;49.446;8.576;2023-01-23T10:37:24;102155.59;;;14.81;38.40
38227;BME280;24026;49.446;8.576;2023-01-23T10:40:06;102152.38;;;14.91;38.01
38227;BME280;24026;49.446;8.576;2023-01-23T10:42:27;102152.63;;;15.01;38.09
38227;BME280;24026;49.446;8.576;2023-01-23T10:44:48;102147.09;;;15.15;37.92
38227;BME280;24026;49.446;8.576;2023-01-23T10:47:19;102143.72;;;15.19;37.95
38227;BME280;24026;49.446;8.576;2023-01-23T10:49:44;102150.41;;;15.41;37.98
38227;BME280;24026;49.446;8.576;2023-01-23T10:52:28;102151.34;;;15.46;37.64
38227;BME280;24026;49.446;8.576;2023-01-23T10:54:49;102148.22;;;15.61;37.46
38227;BME280;24026;49.446;8.576;2023-01-23T10:59:55;102155.69;;;15.83;37.08
38227;BME280;24026;49.446;8.576;2023-01-23T11:02:20;102146.72;;;15.89;37.06
38227;BME280;24026;49.446;8.576;2023-01-23T11:04:43;102142.53;;;15.93;37.11
38227;BME280;24026;49.446;8.576;2023-01-23T11:07:16;102146.81;;;16.06;36.93
38227;BME280;24026;49.446;8.576;2023-01-23T11:09:59;102156.34;;;16.14;36.53
38227;BME280;24026;49.446;8.576;2023-01-23T11:12:28;102149.00;;;16.21;36.40
38227;BME280;24026;49.446;8.576;2023-01-23T11:14:50;102158.34;;;16.18;36.45
38227;BME280;24026;49.446;8.576;2023-01-23T11:17:22;102155.78;;;16.11;36.42
38227;BME280;24026;49.446;8.576;2023-01-23T11:19:46;102152.53;;;15.98;36.79
38227;BME280;24026;49.446;8.576;2023-01-23T11:24:46;102155.78;;;15.52;37.54
38227;BME280;24026;49.446;8.576;2023-01-23T11:27:27;102142.72;;;15.32;37.70
38227;BME280;24026;49.446;8.576;2023-01-23T11:32:32;102138.34;;;15.08;38.21
38227;BME280;24026;49.446;8.576;2023-01-23T11:35:23;102139.75;;;14.98;37.96
38227;BME280;24026;49.446;8.576;2023-01-23T11:37:45;102141.44;;;14.93;38.17
38227;BME280;24026;49.446;8.576;2023-01-23T11:40:12;102149.56;;;14.86;38.16
38227;BME280;24026;49.446;8.576;2023-01-23T11:42:37;102147.44;;;14.76;38.47
38227;BME280;24026;49.446;8.576;2023-01-23T11:44:59;102146.41;;;14.77;38.55
38227;BME280;24026;49.446;8.576;2023-01-23T11:47:48;102135.06;;;14.63;38.41
38227;BME280;24026;49.446;8.576;2023-01-23T11:56:21;102126.78;;;14.84;38.21
38227;BME280;24026;49.446;8.576;2023-01-23T12:09:33;102108.13;;;15.31;37.35
38227;BME280;24026;49.446;8.576;2023-01-23T12:18:06;102102.41;;;15.63;36.55
38227;BME280;24026;49.446;8.576;2023-01-23T12:23:43;102102.66;;;15.85;36.60
38227;BME280;24026;49.446;8.576;2023-01-23T12:26:17;102099.16;;;15.96;36.22
38227;BME280;24026;49.446;8.576;2023-01-23T12:29:06;102102.03;;;16.06;36.15
38227;BME280;24026;49.446;8.576;2023-01-23T12:31:42;102096.78;;;16.11;36.27
38227;BME280;24026;49.446;8.576;2023-01-23T12:34:26;102086.72;;;16.19;36.96
38227;BME280;24026;49.446;8.576;2023-01-23T12:36:53;102080.97;;;16.27;36.32
38227;BME280;24026;49.446;8.576;2023-01-23T12:41:51;102072.25;;;16.20;36.03
38227;BME280;24026;49.446;8.576;2023-01-23T12:44:20;102076.53;;;15.92;36.37
38227;BME280;24026;49.446;8.576;2023-01-23T12:46:57;102074.59;;;15.64;36.99
38227;BME280;24026;49.446;8.576;2023-01-23T12:52:45;102079.00;;;15.46;37.54
38227;BME280;24026;49.446;8.576;2023-01-23T12:55:19;102075.75;;;15.32;37.87
38227;BME280;24026;49.446;8.576;2023-01-23T12:57:41;102072.84;;;15.22;38.05
38227;BME280;24026;49.446;8.576;2023-01-23T13:02:47;102072.59;;;15.12;38.10
38227;BME280;24026;49.446;8.576;2023-01-23T13:05:20;102067.09;;;15.07;38.20
38227;BME280;24026;49.446;8.576;2023-01-23T13:07:48;102062.09;;;15.10;37.94
38227;BME280;24026;49.446;8.576;2023-01-23T13:13:09;102074.09;;;15.19;37.61
38227;BME280;24026;49.446;8.576;2023-01-23T13:15:33;102072.00;;;15.22;37.58
38227;BME280;24026;49.446;8.576;2023-01-23T13:20:23;102077.34;;;15.10;37.76
38227;BME280;24026;49.446;8.576;2023-01-23T13:23:32;102070.38;;;15.09;37.81
38227;BME280;24026;49.446;8.576;2023-01-23T13:31:04;102071.66;;;15.42;37.28
38227;BME280;24026;49.446;8.576;2023-01-23T13:38:27;102063.41;;;15.79;37.10
38227;BME280;24026;49.446;8.576;2023-01-23T13:48:53;102055.78;;;16.28;36.33
38227;BME280;24026;49.446;8.576;2023-01-23T13:51:37;102044.78;;;16.41;36.15
38227;BME280;24026;49.446;8.576;2023-01-23T13:53:59;102044.72;;;16.53;36.09
38227;BME280;24026;49.446;8.576;2023-01-23T13:56:39;102043.53;;;16.61;36.05
38227;BME280;24026;49.446;8.576;2023-01-23T13:59:03;102038.22;;;16.66;35.87
38227;BME280;24026;49.446;8.576;2023-01-23T14:01:26;102033.44;;;16.68;35.71
38227;BME280;24026;49.446;8.576;2023-01-23T14:04:17;102035.84;;;16.53;35.49
38227;BME280;24026;49.446;8.576;2023-01-23T14:06:57;102034.94;;;16.47;35.91
38227;BME280;24026;49.446;8.576;2023-01-23T14:09:28;102027.00;;;16.23;36.06